createdAt,value
2023-02-14T00:00:09.176Z,84.84
2023-02-14T00:01:10.612Z,85.02
2023-02-14T00:01:44.957Z,84.97
2023-02-14T00:02:30.858Z,84.96
2023-02-14T00:03:13.163Z,84.93
2023-02-14T00:04:00.885Z,84.79
2023-02-14T00:04:38.521Z,84.83
2023-02-14T00:05:12.167Z,84.90
2023-02-14T00:05:52.944Z,85.05
2023-02-14T00:06:29.998Z,84.74
2023-02-14T00:07:03.988Z,84.74
2023-02-14T00:07:40.036Z,84.78
2023-02-14T00:08:36.624Z,84.92
2023-02-14T00:09:17.723Z,84.69
2023-02-14T00:09:51.466Z,84.72
2023-02-14T00:10:28.012Z,84.93
2023-02-14T00:11:01.709Z,84.91
2023-02-14T00:11:37.688Z,85.05
2023-02-14T00:12:16.374Z,84.88
2023-02-14T00:13:03.621Z,85.07
2023-02-14T00:13:37.184Z,84.78
2023-02-14T00:14:35.801Z,84.92
2023-02-14T00:15:27.993Z,85.19
2023-02-14T00:16:08.488Z,84.94
2023-02-14T00:16:46.490Z,84.76
2023-02-14T00:17:20.413Z,85.10
2023-02-14T00:18:00.331Z,84.94
2023-02-14T00:19:20.070Z,85.16
2023-02-14T00:20:01.214Z,85.08
2023-02-14T00:20:58.106Z,85.10
2023-02-14T00:21:36.233Z,85.00
2023-02-14T00:22:23.426Z,84.82
2023-02-14T00:23:01.134Z,84.99
2023-02-14T00:23:36.221Z,85.19
2023-02-14T00:24:13.111Z,85.25
2023-02-14T00:25:06.992Z,85.07
2023-02-14T00:25:56.398Z,85.01
2023-02-14T00:26:44.830Z,85.08
2023-02-14T00:27:46.625Z,85.11
2023-02-14T00:28:22.262Z,85.35
2023-02-14T00:29:03.129Z,85.25
2023-02-14T00:29:36.719Z,85.40
2023-02-14T00:30:13.344Z,85.55
2023-02-14T00:30:47.778Z,85.38
2023-02-14T00:31:21.652Z,85.29
2023-02-14T00:31:55.464Z,85.22
2023-02-14T00:32:31.598Z,85.20
2023-02-14T00:33:18.759Z,85.30
2023-02-14T00:33:53.222Z,85.01
2023-02-14T00:34:36.803Z,85.01
2023-02-14T00:35:28.309Z,85.44
2023-02-14T00:36:07.959Z,85.18
2023-02-14T00:36:44.670Z,85.08
2023-02-14T00:37:51.894Z,85.17
2023-02-14T00:38:45.342Z,85.15
2023-02-14T00:39:27.689Z,85.40
2023-02-14T00:40:25.648Z,85.30
2023-02-14T00:41:09.349Z,85.26
2023-02-14T00:42:02.719Z,84.98
2023-02-14T00:42:36.694Z,85.08
2023-02-14T00:43:14.594Z,85.11
2023-02-14T00:46:37.636Z,84.99
2023-02-14T00:47:05.961Z,85.17
2023-02-14T00:47:39.471Z,85.39
2023-02-14T00:48:35.615Z,85.16
2023-02-14T00:49:22.956Z,85.34
2023-02-14T00:50:12.685Z,85.29
2023-02-14T00:51:21.254Z,85.51
2023-02-14T00:51:56.710Z,85.21
2023-02-14T00:52:30.990Z,85.10
2023-02-14T00:53:04.622Z,85.06
2023-02-14T00:53:38.530Z,85.10
2023-02-14T00:54:12.366Z,84.91
2023-02-14T00:54:45.952Z,85.17
2023-02-14T00:55:20.710Z,85.13
2023-02-14T00:55:54.210Z,84.96
2023-02-14T00:56:30.716Z,84.86
2023-02-14T00:57:04.285Z,84.98
2023-02-14T00:57:37.804Z,84.97
2023-02-14T00:58:11.255Z,84.77
2023-02-14T00:58:45.557Z,84.67
2023-02-14T00:59:18.951Z,84.66
2023-02-14T00:59:52.585Z,84.63
2023-02-14T01:00:27.347Z,84.82
2023-02-14T01:01:02.391Z,84.68
2023-02-14T01:01:36.164Z,84.68
2023-02-14T01:02:09.857Z,84.68
2023-02-14T01:02:43.444Z,84.66
2023-02-14T01:03:16.991Z,84.43
2023-02-14T01:03:50.638Z,84.54
2023-02-14T01:04:25.145Z,84.45
2023-02-14T01:04:59.377Z,84.39
2023-02-14T01:05:33.034Z,84.39
2023-02-14T01:06:08.718Z,84.54
2023-02-14T01:06:42.242Z,84.43
2023-02-14T01:07:15.828Z,84.45
2023-02-14T01:07:49.314Z,84.36
2023-02-14T01:08:22.931Z,84.38
2023-02-14T01:08:58.822Z,84.24
2023-02-14T01:09:33.472Z,84.27
2023-02-14T01:10:08.934Z,84.28
2023-02-14T01:10:43.737Z,84.06
2023-02-14T01:11:20.977Z,84.05
2023-02-14T01:11:54.420Z,84.16
2023-02-14T01:12:27.859Z,84.19
2023-02-14T01:13:01.455Z,83.92
2023-02-14T01:13:34.973Z,83.97
2023-02-14T01:14:08.883Z,83.85
2023-02-14T01:14:42.405Z,84.00
2023-02-14T01:15:16.296Z,83.74
2023-02-14T01:15:56.714Z,83.82
2023-02-14T01:16:33.462Z,83.85
2023-02-14T01:17:07.888Z,83.86
2023-02-14T01:17:41.294Z,83.97
2023-02-14T01:18:15.642Z,83.77
2023-02-14T01:18:49.554Z,83.88
2023-02-14T01:19:26.445Z,83.80
2023-02-14T01:20:00.365Z,83.77
2023-02-14T01:20:49.118Z,83.74
2023-02-14T01:21:28.044Z,83.60
2023-02-14T01:22:02.914Z,83.84
2023-02-14T01:22:38.327Z,83.68
2023-02-14T01:23:12.435Z,83.75
2023-02-14T01:23:47.250Z,83.69
2023-02-14T01:24:20.666Z,83.51
2023-02-14T01:24:54.993Z,83.76
2023-02-14T01:26:35.418Z,83.57
2023-02-14T01:27:11.865Z,83.58
2023-02-14T01:27:45.366Z,83.54
2023-02-14T01:28:19.987Z,83.46
2023-02-14T01:28:55.334Z,83.56
2023-02-14T01:29:30.034Z,83.64
2023-02-14T01:30:04.997Z,83.54
2023-02-14T01:30:41.541Z,83.41
2023-02-14T01:31:20.769Z,83.65
2023-02-14T01:31:54.416Z,83.59
2023-02-14T01:32:32.182Z,83.53
2023-02-14T01:33:05.679Z,83.50
2023-02-14T01:33:41.544Z,83.48
2023-02-14T01:34:15.200Z,83.52
2023-02-14T01:34:48.647Z,83.67
2023-02-14T01:35:22.237Z,83.62
2023-02-14T01:35:55.855Z,83.63
2023-02-14T01:36:30.711Z,83.43
2023-02-14T01:37:04.234Z,83.55
2023-02-14T01:37:38.104Z,83.57
2023-02-14T01:38:11.527Z,83.48
2023-02-14T01:38:46.292Z,83.35
2023-02-14T01:39:19.773Z,83.27
2023-02-14T01:39:53.867Z,83.55
2023-02-14T01:40:27.338Z,83.62
2023-02-14T01:41:02.031Z,83.46
2023-02-14T01:41:58.283Z,83.56
2023-02-14T02:01:31.799Z,83.98
2023-02-14T02:02:07.843Z,84.03
2023-02-14T02:02:41.528Z,83.75
2023-02-14T02:03:19.502Z,83.89
2023-02-14T02:04:00.194Z,83.87
2023-02-14T02:04:54.436Z,83.98
2023-02-14T02:05:55.180Z,83.56
2023-02-14T02:06:34.821Z,83.65
2023-02-14T02:07:19.501Z,83.79
2023-02-14T02:07:56.038Z,83.68
2023-02-14T02:08:29.613Z,83.92
2023-02-14T02:09:23.384Z,83.75
2023-02-14T02:10:01.142Z,83.76
2023-02-14T02:10:34.742Z,83.70
2023-02-14T02:11:08.331Z,83.71
2023-02-14T02:11:43.400Z,83.63
2023-02-14T02:12:16.890Z,83.63
2023-02-14T02:12:53.114Z,83.32
2023-02-14T02:31:18.216Z,83.14
2023-02-14T02:32:06.884Z,82.34
2023-02-14T02:32:49.419Z,82.82
2023-02-14T02:33:38.106Z,82.61
2023-02-14T02:34:33.206Z,82.67
2023-02-14T02:35:26.400Z,82.92
2023-02-14T02:36:26.944Z,83.12
2023-02-14T02:37:28.289Z,83.03
2023-02-14T02:38:25.956Z,83.17
2023-02-14T02:39:17.116Z,83.16
2023-02-14T02:39:59.495Z,82.82
2023-02-14T02:40:39.214Z,83.03
2023-02-14T02:41:27.107Z,82.77
2023-02-14T02:42:22.265Z,82.81
2023-02-14T02:43:45.892Z,83.07
2023-02-14T02:44:27.029Z,83.19
2023-02-14T02:45:18.328Z,83.22
2023-02-14T02:46:18.081Z,83.40
2023-02-14T02:47:19.495Z,83.64
2023-02-14T02:48:09.972Z,83.53
2023-02-14T02:48:49.571Z,83.46
2023-02-14T02:51:04.163Z,83.54
2023-02-14T02:52:13.270Z,83.65
2023-02-14T02:53:08.948Z,83.55
2023-02-14T02:53:50.356Z,83.30
2023-02-14T02:54:37.393Z,83.43
2023-02-14T02:55:20.853Z,83.31
2023-02-14T02:56:20.146Z,83.17
2023-02-14T02:56:59.058Z,83.32
2023-02-14T02:57:39.619Z,83.10
2023-02-14T02:58:14.106Z,83.26
2023-02-14T02:58:58.040Z,83.52
2023-02-14T02:59:39.588Z,83.39
2023-02-14T03:00:16.390Z,83.28
2023-02-14T03:00:53.498Z,83.62
2023-02-14T03:01:36.975Z,83.29
2023-02-14T03:02:13.741Z,83.41
2023-02-14T03:03:14.629Z,83.42
2023-02-14T03:04:11.487Z,83.45
2023-02-14T03:04:56.352Z,83.42
2023-02-14T03:05:31.212Z,83.46
2023-02-14T03:06:05.031Z,83.54
2023-02-14T03:06:38.353Z,83.42
2023-02-14T03:07:52.120Z,83.61
2023-02-14T03:08:25.775Z,83.58
2023-02-14T03:09:19.357Z,83.52
2023-02-14T03:10:01.640Z,83.57
2023-02-14T03:10:39.038Z,83.76
2023-02-14T03:11:13.877Z,83.39
2023-02-14T03:11:59.785Z,83.54
2023-02-14T03:12:37.640Z,83.63
2023-02-14T03:13:34.549Z,83.44
2023-02-14T03:14:26.741Z,83.57
2023-02-14T03:15:19.203Z,83.50
2023-02-14T03:15:54.531Z,83.57
2023-02-14T03:16:34.908Z,83.57
2023-02-14T03:17:12.164Z,83.56
2023-02-14T03:18:15.610Z,83.55
2023-02-14T03:19:31.773Z,83.46
2023-02-14T03:20:33.395Z,83.50
2023-02-14T03:21:21.515Z,83.47
2023-02-14T03:21:59.094Z,83.41
2023-02-14T03:22:48.645Z,83.58
2023-02-14T03:23:30.932Z,83.41
2023-02-14T03:24:24.929Z,83.45
2023-02-14T03:25:32.105Z,83.66
2023-02-14T03:26:18.398Z,83.47
2023-02-14T03:27:15.647Z,83.48
2023-02-14T03:28:12.558Z,83.50
2023-02-14T03:29:07.337Z,83.52
2023-02-14T03:29:54.509Z,83.50
2023-02-14T03:30:42.188Z,83.48
2023-02-14T03:31:29.442Z,83.57
2023-02-14T03:32:29.937Z,83.65
2023-02-14T03:33:28.054Z,83.82
2023-02-14T03:34:21.564Z,83.55
2023-02-14T03:35:00.214Z,83.73
2023-02-14T03:35:47.920Z,83.57
2023-02-14T03:36:27.972Z,83.46
2023-02-14T03:37:17.909Z,83.76
2023-02-14T03:38:22.585Z,83.48
2023-02-14T03:39:42.761Z,83.88
2023-02-14T03:40:35.517Z,83.67
2023-02-14T03:41:18.543Z,83.79
2023-02-14T03:42:07.549Z,83.68
2023-02-14T03:42:50.904Z,83.70
2023-02-14T03:43:41.695Z,83.48
2023-02-14T03:44:20.570Z,83.58
2023-02-14T03:44:58.643Z,83.75
2023-02-14T03:45:38.636Z,83.66
2023-02-14T03:46:30.580Z,83.87
2023-02-14T03:47:13.384Z,83.76
2023-02-14T03:47:49.196Z,83.90
2023-02-14T03:48:25.873Z,83.85
2023-02-14T03:49:05.440Z,83.65
2023-02-14T03:49:45.765Z,83.93
2023-02-14T03:50:20.906Z,83.96
2023-02-14T03:50:56.998Z,83.92
2023-02-14T03:51:34.581Z,83.76
2023-02-14T03:52:11.110Z,84.09
2023-02-14T03:52:46.935Z,83.71
2023-02-14T03:53:26.052Z,83.91
2023-02-14T03:54:00.142Z,83.90
2023-02-14T03:54:35.931Z,83.89
2023-02-14T03:55:10.374Z,83.86
2023-02-14T03:55:51.646Z,83.81
2023-02-14T03:57:18.567Z,83.86
2023-02-14T03:58:04.017Z,83.89
2023-02-14T03:58:44.474Z,83.88
2023-02-14T03:59:26.004Z,83.94
2023-02-14T03:59:59.869Z,83.91
2023-02-14T04:00:35.765Z,83.86
2023-02-14T04:01:27.203Z,83.80
2023-02-14T04:02:06.910Z,83.94
2023-02-14T04:02:46.813Z,83.66
2023-02-14T04:03:21.949Z,83.37
2023-02-14T04:03:57.600Z,83.52
2023-02-14T04:04:36.147Z,83.66
2023-02-14T04:05:16.848Z,83.66
2023-02-14T04:05:52.683Z,83.66
2023-02-14T04:06:26.539Z,83.59
2023-02-14T04:07:00.400Z,83.61
2023-02-14T04:07:45.525Z,83.53
2023-02-14T04:08:28.129Z,83.50
2023-02-14T04:09:01.721Z,83.49
2023-02-14T04:09:37.934Z,83.53
2023-02-14T04:10:14.168Z,83.43
2023-02-14T04:10:49.519Z,83.48
2023-02-14T04:11:24.454Z,83.55
2023-02-14T04:11:58.175Z,83.49
2023-02-14T04:12:37.809Z,83.42
2023-02-14T04:13:11.635Z,83.34
2023-02-14T04:13:45.243Z,83.41
2023-02-14T04:14:18.952Z,83.44
2023-02-14T04:14:52.564Z,83.30
2023-02-14T04:15:26.055Z,83.37
2023-02-14T04:16:02.361Z,83.32
2023-02-14T04:16:56.122Z,83.38
2023-02-14T04:17:48.218Z,83.32
2023-02-14T04:18:42.327Z,83.45
2023-02-14T04:19:24.848Z,83.41
2023-02-14T04:19:58.263Z,83.34
2023-02-14T04:20:31.807Z,83.48
2023-02-14T04:21:06.067Z,83.34
2023-02-14T04:21:39.499Z,83.44
2023-02-14T04:22:12.996Z,83.30
2023-02-14T04:22:46.956Z,83.35
2023-02-14T04:23:20.428Z,83.31
2023-02-14T04:23:54.008Z,83.12
2023-02-14T04:24:27.575Z,83.25
2023-02-14T04:25:00.989Z,83.29
2023-02-14T04:25:34.607Z,83.07
2023-02-14T04:26:08.320Z,83.21
2023-02-14T04:26:54.327Z,83.22
2023-02-14T04:27:27.844Z,83.13
2023-02-14T04:28:01.255Z,83.24
2023-02-14T04:28:35.146Z,83.23
2023-02-14T04:29:08.597Z,83.22
2023-02-14T04:29:48.155Z,83.22
2023-02-14T04:30:23.039Z,83.19
2023-02-14T04:31:02.596Z,83.32
2023-02-14T04:31:36.409Z,83.20
2023-02-14T04:32:13.404Z,83.15
2023-02-14T04:32:47.404Z,83.28
2023-02-14T04:33:20.730Z,83.30
2023-02-14T04:33:54.436Z,83.24
2023-02-14T04:34:27.929Z,83.08
2023-02-14T04:35:01.344Z,83.19
2023-02-14T04:35:35.817Z,83.16
2023-02-14T04:36:09.324Z,83.30
2023-02-14T04:36:42.755Z,83.10
2023-02-14T04:37:18.862Z,83.16
2023-02-14T04:37:53.052Z,83.19
2023-02-14T04:38:26.579Z,83.15
2023-02-14T04:39:01.163Z,83.16
2023-02-14T04:39:37.762Z,83.10
2023-02-14T04:40:11.761Z,83.00
2023-02-14T04:40:45.264Z,83.21
2023-02-14T04:41:18.665Z,82.96
2023-02-14T04:41:52.051Z,82.98
2023-02-14T04:42:28.772Z,82.86
2023-02-14T04:43:04.899Z,83.01
2023-02-14T04:43:38.313Z,82.95
2023-02-14T04:44:11.789Z,82.79
2023-02-14T04:44:45.440Z,82.96
2023-02-14T04:45:18.953Z,82.82
2023-02-14T04:45:52.399Z,82.76
2023-02-14T04:46:26.019Z,82.60
2023-02-14T04:46:59.609Z,82.62
2023-02-14T04:47:33.120Z,82.51
2023-02-14T04:48:06.505Z,82.23
2023-02-14T04:48:39.968Z,81.96
2023-02-14T04:49:13.760Z,82.07
2023-02-14T04:49:47.337Z,82.12
2023-02-14T04:50:20.934Z,82.27
2023-02-14T04:50:55.362Z,82.30
2023-02-14T04:51:29.003Z,82.19
2023-02-14T04:52:02.763Z,82.26
2023-02-14T04:52:36.403Z,82.32
2023-02-14T04:53:11.525Z,82.25
2023-02-14T04:53:44.877Z,82.26
2023-02-14T04:54:19.472Z,82.32
2023-02-14T04:54:53.169Z,82.41
2023-02-14T04:55:26.667Z,82.22
2023-02-14T04:56:00.054Z,82.18
2023-02-14T04:56:33.555Z,82.07
2023-02-14T04:57:07.041Z,82.20
2023-02-14T04:57:40.908Z,82.27
2023-02-14T04:58:14.495Z,82.16
2023-02-14T04:58:50.794Z,82.17
2023-02-14T04:59:25.140Z,82.23
2023-02-14T04:59:58.653Z,82.22
2023-02-14T05:00:32.220Z,82.17
2023-02-14T05:01:11.251Z,81.99
2023-02-14T05:01:44.801Z,82.15
2023-02-14T05:02:18.323Z,82.17
2023-02-14T05:02:51.823Z,82.17
2023-02-14T05:03:25.931Z,82.14
2023-02-14T05:03:59.350Z,82.18
2023-02-14T05:04:32.821Z,82.10
2023-02-14T05:05:06.898Z,81.95
2023-02-14T05:05:40.429Z,82.01
2023-02-14T05:06:13.972Z,81.93
2023-02-14T05:06:47.590Z,81.98
2023-02-14T05:07:21.215Z,82.04
2023-02-14T05:07:54.886Z,81.94
2023-02-14T05:08:28.433Z,81.97
2023-02-14T05:09:02.461Z,81.90
2023-02-14T05:09:36.216Z,82.07
2023-02-14T05:10:10.205Z,82.00
2023-02-14T05:10:44.336Z,81.89
2023-02-14T05:11:18.203Z,81.82
2023-02-14T05:11:52.085Z,81.93
2023-02-14T05:12:25.784Z,81.88
2023-02-14T05:12:59.317Z,81.95
2023-02-14T05:13:32.779Z,81.90
2023-02-14T05:14:06.226Z,81.77
2023-02-14T05:14:39.905Z,81.84
2023-02-14T05:15:13.780Z,81.84
2023-02-14T05:15:47.296Z,81.94
2023-02-14T05:16:20.785Z,81.75
2023-02-14T05:16:55.375Z,81.86
2023-02-14T05:17:28.915Z,81.86
2023-02-14T05:18:03.235Z,81.74
2023-02-14T05:18:36.705Z,81.85
2023-02-14T05:19:10.196Z,81.69
2023-02-14T05:19:43.568Z,81.70
2023-02-14T05:20:17.015Z,81.67
2023-02-14T05:20:52.054Z,81.59
2023-02-14T05:21:25.684Z,81.71
2023-02-14T05:21:59.189Z,81.65
2023-02-14T05:22:32.634Z,81.62
2023-02-14T05:23:07.354Z,81.53
2023-02-14T05:23:41.403Z,81.70
2023-02-14T05:24:14.961Z,81.61
2023-02-14T05:24:48.318Z,81.75
2023-02-14T05:25:21.739Z,81.72
2023-02-14T05:25:55.239Z,81.54
2023-02-14T05:26:29.211Z,81.24
2023-02-14T05:27:02.637Z,81.34
2023-02-14T05:27:36.215Z,81.28
2023-02-14T05:28:10.901Z,80.99
2023-02-14T05:28:44.404Z,80.92
2023-02-14T05:29:17.809Z,81.00
2023-02-14T05:29:51.490Z,81.22
2023-02-14T05:30:28.246Z,81.43
2023-02-14T05:31:02.211Z,81.43
2023-02-14T05:31:36.405Z,81.54
2023-02-14T05:32:09.915Z,81.64
2023-02-14T05:32:43.458Z,81.66
2023-02-14T05:33:16.922Z,81.56
2023-02-14T05:33:50.453Z,81.56
2023-02-14T05:34:23.930Z,81.09
2023-02-14T05:34:58.055Z,81.06
2023-02-14T05:35:32.639Z,81.31
2023-02-14T05:36:06.363Z,81.32
2023-02-14T05:36:39.867Z,81.33
2023-02-14T05:37:13.330Z,81.38
2023-02-14T05:37:49.940Z,81.62
2023-02-14T05:38:23.423Z,81.68
2023-02-14T05:38:56.847Z,81.48
2023-02-14T05:39:30.542Z,81.56
2023-02-14T05:40:04.526Z,81.92
2023-02-14T05:40:37.884Z,81.97
2023-02-14T05:41:11.597Z,81.97
2023-02-14T05:41:45.102Z,82.14
2023-02-14T05:42:18.567Z,82.11
2023-02-14T05:42:56.182Z,82.03
2023-02-14T05:43:30.864Z,82.09
2023-02-14T05:44:04.597Z,82.25
2023-02-14T05:44:38.075Z,82.26
2023-02-14T05:45:12.700Z,82.12
2023-02-14T05:45:46.309Z,82.27
2023-02-14T05:46:19.913Z,82.21
2023-02-14T05:46:55.068Z,82.14
2023-02-14T05:47:28.604Z,82.27
2023-02-14T05:48:02.768Z,82.12
2023-02-14T05:48:36.392Z,82.31
2023-02-14T05:49:09.972Z,82.20
2023-02-14T05:49:43.584Z,82.24
2023-02-14T05:50:18.531Z,82.08
2023-02-14T05:50:52.670Z,82.13
2023-02-14T05:51:26.348Z,82.29
2023-02-14T05:51:59.976Z,82.35
2023-02-14T05:52:33.754Z,82.16
2023-02-14T05:53:07.244Z,82.09
2023-02-14T05:53:40.805Z,82.32
2023-02-14T05:54:14.192Z,82.19
2023-02-14T05:54:47.645Z,82.14
2023-02-14T05:55:22.750Z,82.10
2023-02-14T05:55:57.278Z,82.23
2023-02-14T05:56:31.026Z,82.24
2023-02-14T05:57:04.509Z,82.19
2023-02-14T05:57:38.177Z,82.25
2023-02-14T05:58:12.912Z,82.24
2023-02-14T05:58:46.420Z,82.13
2023-02-14T05:59:19.927Z,81.90
2023-02-14T05:59:53.710Z,81.90
2023-02-14T06:00:27.518Z,81.84
2023-02-14T06:01:01.764Z,81.93
2023-02-14T06:01:35.703Z,81.90
2023-02-14T06:02:10.251Z,81.69
2023-02-14T06:02:43.906Z,81.70
2023-02-14T06:03:17.741Z,81.87
2023-02-14T06:03:51.403Z,82.13
2023-02-14T06:04:27.211Z,82.41
2023-02-14T06:05:08.720Z,82.47
2023-02-14T06:05:42.267Z,82.95
2023-02-14T06:06:15.969Z,83.20
2023-02-14T06:06:49.385Z,83.36
2023-02-14T06:07:22.838Z,83.31
2023-02-14T06:07:58.246Z,83.56
2023-02-14T06:08:42.382Z,83.49
2023-02-14T06:09:15.880Z,83.75
2023-02-14T06:09:49.466Z,83.77
2023-02-14T06:10:25.410Z,83.73
2023-02-14T06:10:59.189Z,83.96
2023-02-14T06:11:32.926Z,83.92
2023-02-14T06:12:09.336Z,83.69
2023-02-14T06:12:42.964Z,83.89
2023-02-14T06:13:16.433Z,83.85
2023-02-14T06:13:52.693Z,83.79
2023-02-14T06:14:26.475Z,83.75
2023-02-14T06:14:59.836Z,83.75
2023-02-14T06:15:33.178Z,83.70
2023-02-14T06:16:06.827Z,83.71
2023-02-14T06:16:40.305Z,83.74
2023-02-14T06:17:13.850Z,83.60
2023-02-14T06:17:52.169Z,83.53
2023-02-14T06:18:28.419Z,83.66
2023-02-14T06:19:01.865Z,83.69
2023-02-14T06:19:36.515Z,83.59
2023-02-14T06:20:10.488Z,83.53
2023-02-14T06:20:44.325Z,83.72
2023-02-14T06:21:17.761Z,83.74
2023-02-14T06:21:51.165Z,83.64
2023-02-14T06:22:24.641Z,83.66
2023-02-14T06:23:00.173Z,83.73
2023-02-14T06:23:33.638Z,83.76
2023-02-14T06:24:07.287Z,83.68
2023-02-14T06:24:40.702Z,83.69
2023-02-14T06:25:14.378Z,83.67
2023-02-14T06:25:48.195Z,83.60
2023-02-14T06:26:21.687Z,83.50
2023-02-14T06:26:55.341Z,83.61
2023-02-14T06:27:32.786Z,83.45
2023-02-14T06:28:06.846Z,83.40
2023-02-14T06:28:40.382Z,83.50
2023-02-14T06:29:13.811Z,83.59
2023-02-14T06:29:47.421Z,83.58
2023-02-14T06:30:22.478Z,83.70
2023-02-14T06:30:56.192Z,83.70
2023-02-14T06:31:30.325Z,83.63
2023-02-14T06:32:07.177Z,83.56
2023-02-14T06:32:40.937Z,83.76
2023-02-14T06:33:15.045Z,83.78
2023-02-14T06:33:48.509Z,83.79
2023-02-14T06:34:21.885Z,83.81
2023-02-14T06:34:55.484Z,83.83
2023-02-14T06:35:28.919Z,83.74
2023-02-14T06:36:02.411Z,83.77
2023-02-14T06:36:36.070Z,83.73
2023-02-14T06:37:09.693Z,83.73
2023-02-14T06:37:45.410Z,83.91
2023-02-14T06:38:18.919Z,83.74
2023-02-14T06:38:52.500Z,83.77
2023-02-14T06:39:25.997Z,83.89
2023-02-14T06:39:59.548Z,83.93
2023-02-14T06:40:33.114Z,83.78
2023-02-14T06:41:08.059Z,83.82
2023-02-14T06:41:41.530Z,83.93
2023-02-14T06:42:15.039Z,83.73
2023-02-14T06:42:48.514Z,83.89
2023-02-14T06:43:21.917Z,83.80
2023-02-14T06:43:55.234Z,83.94
2023-02-14T06:44:28.694Z,83.86
2023-02-14T06:45:03.448Z,83.95
2023-02-14T06:45:37.120Z,84.00
2023-02-14T06:46:11.628Z,84.07
2023-02-14T06:46:45.379Z,83.94
2023-02-14T06:47:18.893Z,84.06
2023-02-14T06:47:52.333Z,83.97
2023-02-14T06:48:26.068Z,83.93
2023-02-14T06:48:59.532Z,83.84
2023-02-14T06:49:33.038Z,83.89
2023-02-14T06:50:07.516Z,83.91
2023-02-14T06:50:41.021Z,84.08
2023-02-14T06:51:14.711Z,84.00
2023-02-14T06:51:48.140Z,84.12
2023-02-14T06:52:21.646Z,84.02
2023-02-14T06:52:55.149Z,84.25
2023-02-14T06:53:28.942Z,84.05
2023-02-14T06:54:02.723Z,84.32
2023-02-14T06:54:36.820Z,84.17
2023-02-14T06:55:13.300Z,84.04
2023-02-14T06:55:47.235Z,84.19
2023-02-14T06:56:20.808Z,84.11
2023-02-14T06:56:54.270Z,84.22
2023-02-14T06:57:27.894Z,84.23
2023-02-14T06:58:01.402Z,84.19
2023-02-14T06:58:35.204Z,84.05
2023-02-14T06:59:08.871Z,84.00
2023-02-14T06:59:42.208Z,84.15
2023-02-14T07:00:16.122Z,83.93
2023-02-14T07:00:49.633Z,83.55
2023-02-14T07:01:23.212Z,83.74
2023-02-14T07:01:56.698Z,83.81
2023-02-14T07:02:30.258Z,83.88
2023-02-14T07:03:03.904Z,83.67
2023-02-14T07:03:37.394Z,83.79
2023-02-14T07:04:11.059Z,83.75
2023-02-14T07:04:44.544Z,83.81
2023-02-14T07:05:19.215Z,83.71
2023-02-14T07:05:53.574Z,83.61
2023-02-14T07:06:26.995Z,83.55
2023-02-14T07:07:01.622Z,83.83
2023-02-14T07:07:35.315Z,83.55
2023-02-14T07:08:08.790Z,83.60
2023-02-14T07:08:42.762Z,83.59
2023-02-14T07:09:17.374Z,83.39
2023-02-14T07:09:50.877Z,83.41
2023-02-14T07:10:24.638Z,83.35
2023-02-14T07:10:59.289Z,83.51
2023-02-14T07:11:33.350Z,83.36
2023-02-14T07:12:07.169Z,83.59
2023-02-14T07:12:41.271Z,83.31
2023-02-14T07:13:14.829Z,83.24
2023-02-14T07:13:49.529Z,83.37
2023-02-14T07:14:23.317Z,83.49
2023-02-14T07:14:56.808Z,83.51
2023-02-14T07:15:30.749Z,83.39
2023-02-14T07:16:04.517Z,83.18
2023-02-14T07:16:38.142Z,83.32
2023-02-14T07:17:11.660Z,83.25
2023-02-14T07:17:45.070Z,83.44
2023-02-14T07:18:20.447Z,83.32
2023-02-14T07:18:54.009Z,83.47
2023-02-14T07:19:27.603Z,83.45
2023-02-14T07:20:01.221Z,83.44
2023-02-14T07:20:35.326Z,83.37
2023-02-14T07:21:08.746Z,83.45
2023-02-14T07:21:42.250Z,83.43
2023-02-14T07:22:15.871Z,83.36
2023-02-14T07:22:49.398Z,83.31
2023-02-14T07:23:23.205Z,83.32
2023-02-14T07:23:57.017Z,83.46
2023-02-14T07:24:30.556Z,83.29
2023-02-14T07:25:04.918Z,83.37
2023-02-14T07:25:38.406Z,83.30
2023-02-14T07:26:18.386Z,83.16
2023-02-14T07:26:51.787Z,83.05
2023-02-14T07:27:25.360Z,83.38
2023-02-14T07:27:58.917Z,83.17
2023-02-14T07:28:33.890Z,83.19
2023-02-14T07:29:07.417Z,83.20
2023-02-14T07:29:41.139Z,83.09
2023-02-14T07:30:15.112Z,83.12
2023-02-14T07:30:48.830Z,83.03
2023-02-14T07:31:23.900Z,83.30
2023-02-14T07:31:57.584Z,83.27
2023-02-14T07:32:31.160Z,83.11
2023-02-14T07:33:05.888Z,83.12
2023-02-14T07:33:39.401Z,83.18
2023-02-14T07:34:12.863Z,82.92
2023-02-14T07:34:46.333Z,82.92
2023-02-14T07:35:20.058Z,82.83
2023-02-14T07:35:53.499Z,82.81
2023-02-14T07:36:27.436Z,83.00
2023-02-14T07:37:02.094Z,82.87
2023-02-14T07:37:36.193Z,82.87
2023-02-14T07:38:09.838Z,82.81
2023-02-14T07:38:44.400Z,82.74
2023-02-14T07:39:17.947Z,82.63
2023-02-14T07:39:51.346Z,82.75
2023-02-14T07:40:25.507Z,82.82
2023-02-14T07:40:59.372Z,82.72
2023-02-14T07:41:33.093Z,82.22
2023-02-14T07:42:08.451Z,81.64
2023-02-14T07:42:42.649Z,81.20
2023-02-14T07:43:16.170Z,81.30
2023-02-14T07:43:49.592Z,80.94
2023-02-14T07:44:23.158Z,80.63
2023-02-14T07:44:56.555Z,80.68
2023-02-14T07:45:30.167Z,80.23
2023-02-14T07:46:03.967Z,79.36
2023-02-14T07:46:37.532Z,79.63
2023-02-14T07:47:11.078Z,79.55
2023-02-14T07:47:44.450Z,79.19
2023-02-14T07:48:17.958Z,78.71
2023-02-14T07:48:52.289Z,78.53
2023-02-14T07:49:25.796Z,77.73
2023-02-14T07:49:59.286Z,77.20
2023-02-14T07:50:32.934Z,76.91
2023-02-14T07:51:06.592Z,76.41
2023-02-14T07:51:40.154Z,76.25
2023-02-14T07:52:13.614Z,75.18
2023-02-14T07:52:47.758Z,75.30
2023-02-14T07:53:21.121Z,74.22
2023-02-14T07:53:54.668Z,74.05
2023-02-14T07:54:28.413Z,72.90
2023-02-14T07:55:01.882Z,73.38
2023-02-14T07:55:36.066Z,72.88
2023-02-14T07:56:13.361Z,72.96
2023-02-14T07:56:46.960Z,72.01
2023-02-14T07:57:20.810Z,71.42
2023-02-14T07:57:54.523Z,70.57
2023-02-14T07:58:28.028Z,70.32
2023-02-14T07:59:01.582Z,70.03
2023-02-14T07:59:35.239Z,70.08
2023-02-14T08:00:09.490Z,70.12
2023-02-14T08:00:49.052Z,68.85
2023-02-14T08:01:22.600Z,67.16
2023-02-14T08:01:56.368Z,65.93
2023-02-14T08:02:29.835Z,66.81
2023-02-14T08:03:03.893Z,66.22
2023-02-14T08:03:37.684Z,65.31
2023-02-14T08:04:14.062Z,66.08
2023-02-14T08:04:47.696Z,65.25
2023-02-14T08:05:21.439Z,63.88
2023-02-14T08:05:57.868Z,63.78
2023-02-14T08:06:31.367Z,63.68
2023-02-14T08:07:04.800Z,63.48
2023-02-14T08:07:38.245Z,63.69
2023-02-14T08:08:11.695Z,62.42
2023-02-14T08:08:45.855Z,62.47
2023-02-14T08:09:24.987Z,61.93
2023-02-14T08:09:58.339Z,60.37
2023-02-14T08:10:31.850Z,61.13
2023-02-14T08:11:05.360Z,60.70
2023-02-14T08:11:57.637Z,60.33
2023-02-14T08:12:49.866Z,58.39
2023-02-14T08:13:23.740Z,58.91
2023-02-14T08:13:57.175Z,59.17
2023-02-14T08:14:30.606Z,59.24
2023-02-14T08:15:22.845Z,58.36
2023-02-14T08:16:06.167Z,58.36
2023-02-14T08:16:40.073Z,58.29
2023-02-14T08:17:14.152Z,59.45
2023-02-14T08:17:48.857Z,59.12
2023-02-14T08:18:27.449Z,59.46
2023-02-14T08:19:02.122Z,57.54
2023-02-14T08:19:36.705Z,58.03
2023-02-14T08:20:10.701Z,57.75
2023-02-14T08:20:46.236Z,57.36
2023-02-14T08:21:19.742Z,56.65
2023-02-14T08:21:53.263Z,56.61
2023-02-14T08:22:26.776Z,56.43
2023-02-14T08:23:00.286Z,57.09
2023-02-14T08:23:34.618Z,56.14
2023-02-14T08:24:08.097Z,55.52
2023-02-14T08:24:41.564Z,56.24
2023-02-14T08:25:17.201Z,56.08
2023-02-14T08:26:00.896Z,54.86
2023-02-14T08:26:44.361Z,54.27
2023-02-14T08:27:22.814Z,53.72
2023-02-14T08:27:57.167Z,54.27
2023-02-14T08:28:33.569Z,55.05
2023-02-14T08:29:08.186Z,54.09
2023-02-14T08:29:43.238Z,53.69
2023-02-14T08:30:18.587Z,53.67
2023-02-14T08:31:00.511Z,52.98
2023-02-14T08:31:36.431Z,53.40
2023-02-14T08:32:11.325Z,53.98
2023-02-14T08:32:46.515Z,54.35
2023-02-14T08:33:20.497Z,53.04
2023-02-14T08:33:53.969Z,53.47
2023-02-14T08:34:27.726Z,53.61
2023-02-14T08:35:01.387Z,53.15
2023-02-14T08:35:36.729Z,52.56
2023-02-14T08:36:10.552Z,52.88
2023-02-14T08:36:44.416Z,52.44
2023-02-14T08:37:17.938Z,51.92
2023-02-14T08:37:51.665Z,51.84
2023-02-14T08:38:25.210Z,52.10
2023-02-14T08:38:58.729Z,51.76
2023-02-14T08:39:33.173Z,51.44
2023-02-14T08:40:07.727Z,51.60
2023-02-14T08:40:41.826Z,51.33
2023-02-14T08:41:16.506Z,52.12
2023-02-14T08:41:49.988Z,50.67
2023-02-14T08:42:23.702Z,50.94
2023-02-14T08:42:57.801Z,50.76